createdAt,value
2018-05-08T00:01:45.011Z,26.57
2018-05-08T00:04:18.130Z,26.61
2018-05-08T00:06:49.547Z,26.56
2018-05-08T00:09:21.472Z,26.60
2018-05-08T00:11:53.488Z,26.77
2018-05-08T00:14:26.446Z,26.84
2018-05-08T00:16:57.966Z,26.88
2018-05-08T00:19:29.579Z,26.93
2018-05-08T00:22:01.486Z,26.92
2018-05-08T00:26:45.320Z,27.18
2018-05-08T00:29:16.934Z,27.29
2018-05-08T00:31:48.807Z,27.41
2018-05-08T00:34:20.595Z,27.46
2018-05-08T00:36:52.118Z,27.52
2018-05-08T00:39:23.577Z,27.60
2018-05-08T00:41:55.784Z,27.70
2018-05-08T00:44:27.489Z,27.72
2018-05-08T00:47:00.342Z,27.76
2018-05-08T00:49:31.974Z,27.85
2018-05-08T00:52:03.489Z,27.98
2018-05-08T00:54:46.376Z,28.03
2018-05-08T00:57:19.383Z,28.09
2018-05-08T00:59:51.015Z,28.21
2018-05-08T01:02:23.478Z,28.20
2018-05-08T01:04:55.021Z,28.37
2018-05-08T01:07:27.630Z,28.48
2018-05-08T01:09:59.269Z,28.44
2018-05-08T01:12:32.169Z,28.54
2018-05-08T01:15:04.027Z,28.65
2018-05-08T01:17:35.900Z,28.75
2018-05-08T01:20:07.489Z,28.75
2018-05-08T01:22:39.115Z,28.84
2018-05-08T01:25:12.408Z,28.79
2018-05-08T01:27:44.233Z,28.86
2018-05-08T01:30:17.427Z,28.86
2018-05-08T01:32:49.399Z,28.99
2018-05-08T01:35:21.452Z,29.08
2018-05-08T01:37:54.804Z,29.04
2018-05-08T01:40:27.447Z,29.12
2018-05-08T01:45:09.470Z,29.25
2018-05-08T01:47:41.225Z,29.29
2018-05-08T01:50:12.892Z,29.28
2018-05-08T01:52:44.411Z,29.31
2018-05-08T01:55:16.107Z,29.37
2018-05-08T01:57:50.073Z,29.50
2018-05-08T02:00:21.958Z,29.69
2018-05-08T02:05:25.554Z,29.76
2018-05-08T02:07:56.336Z,29.83
2018-05-08T02:10:28.549Z,29.86
2018-05-08T02:13:00.446Z,29.97
2018-05-08T02:15:32.107Z,30.07
2018-05-08T02:18:04.044Z,30.08
2018-05-08T02:20:37.447Z,30.12
2018-05-08T02:23:09.897Z,30.25
2018-05-08T02:25:41.981Z,30.27
2018-05-08T02:28:15.722Z,30.33
2018-05-08T02:30:47.520Z,30.43
2018-05-08T02:33:20.465Z,30.54
2018-05-08T02:35:52.148Z,30.67
2018-05-08T02:38:23.968Z,30.60
2018-05-08T02:40:56.077Z,30.64
2018-05-08T02:43:28.092Z,30.86
2018-05-08T02:46:00.650Z,30.96
2018-05-08T02:48:33.910Z,30.96
2018-05-08T02:51:05.787Z,30.98
2018-05-08T02:53:38.340Z,31.09
2018-05-08T02:56:10.544Z,31.32
2018-05-08T02:58:44.449Z,31.50
2018-05-08T03:01:16.091Z,31.43
2018-05-08T03:03:48.071Z,31.52
2018-05-08T03:06:21.239Z,31.56
2018-05-08T03:08:53.540Z,31.59
2018-05-08T03:11:25.977Z,31.65
2018-05-08T03:13:57.804Z,31.68
2018-05-08T03:16:29.928Z,31.79
2018-05-08T03:19:02.051Z,31.79
2018-05-08T03:21:34.551Z,31.95
2018-05-08T03:24:06.966Z,32.06
2018-05-08T03:26:40.300Z,32.09
2018-05-08T03:29:12.255Z,32.12
2018-05-08T03:31:44.109Z,32.19
2018-05-08T03:34:16.070Z,32.26
2018-05-08T03:36:48.115Z,32.27
2018-05-08T03:39:21.147Z,32.37
2018-05-08T03:41:52.772Z,32.41
2018-05-08T03:44:24.887Z,32.60
2018-05-08T03:46:57.037Z,32.68
2018-05-08T03:49:28.545Z,32.68
2018-05-08T03:52:53.933Z,32.87
2018-05-08T03:55:27.444Z,32.81
2018-05-08T03:57:59.944Z,32.83
2018-05-08T04:00:43.569Z,32.90
2018-05-08T04:03:26.200Z,32.83
2018-05-08T04:06:03.941Z,32.95
2018-05-08T04:08:36.412Z,33.09
2018-05-08T04:11:08.249Z,33.09
2018-05-08T04:13:40.054Z,33.22
2018-05-08T04:18:12.939Z,33.38
2018-05-08T04:20:48.078Z,33.45
2018-05-08T04:23:19.624Z,33.52
2018-05-08T04:25:51.941Z,33.57
2018-05-08T04:28:24.423Z,33.67
2018-05-08T04:30:56.938Z,33.71
2018-05-08T04:33:29.494Z,33.93
2018-05-08T04:36:01.336Z,33.92
2018-05-08T04:38:38.521Z,33.96
2018-05-08T04:41:11.225Z,34.09
2018-05-08T04:43:44.331Z,34.08
2018-05-08T04:46:15.978Z,34.19
2018-05-08T04:48:48.544Z,34.28
2018-05-08T04:51:20.553Z,34.46
2018-05-08T04:53:51.999Z,34.49
2018-05-08T04:56:25.429Z,34.36
2018-05-08T04:58:57.980Z,34.50
2018-05-08T05:01:31.558Z,34.55
2018-05-08T05:04:07.012Z,34.61
2018-05-08T05:06:38.556Z,34.66
2018-05-08T05:09:10.021Z,34.71
2018-05-08T05:11:41.557Z,34.86
2018-05-08T05:14:14.387Z,34.91
2018-05-08T05:16:46.010Z,34.81
2018-05-08T05:19:18.419Z,35.09
2018-05-08T05:21:51.105Z,35.17
2018-05-08T05:24:23.173Z,35.16
2018-05-08T05:26:55.133Z,35.17
2018-05-08T05:32:14.437Z,35.52
2018-05-08T05:34:46.348Z,35.37
2018-05-08T05:37:18.965Z,35.42
2018-05-08T05:39:50.926Z,35.30
2018-05-08T05:42:22.675Z,35.56
2018-05-08T05:44:54.409Z,35.68
2018-05-08T05:47:26.566Z,35.62
2018-05-08T05:49:58.105Z,35.83
2018-05-08T05:52:30.015Z,35.83
2018-05-08T05:55:01.603Z,36.01
2018-05-08T05:57:35.467Z,36.02
2018-05-08T06:00:07.447Z,35.92
2018-05-08T06:02:39.142Z,35.95
2018-05-08T06:05:12.460Z,36.18
2018-05-08T06:07:44.357Z,36.21
2018-05-08T06:10:16.096Z,36.46
2018-05-08T06:12:47.876Z,36.37
2018-05-08T06:15:21.494Z,36.43
2018-05-08T06:17:53.291Z,36.40
2018-05-08T06:20:24.962Z,36.53
2018-05-08T06:22:58.109Z,36.43
2018-05-08T06:25:30.879Z,36.45
2018-05-08T06:28:03.488Z,36.63
2018-05-08T06:30:36.011Z,36.69
2018-05-08T06:33:09.160Z,36.72
2018-05-08T06:35:42.487Z,36.87
2018-05-08T06:38:15.491Z,36.98
2018-05-08T06:40:49.322Z,36.82
2018-05-08T06:43:22.713Z,36.93
2018-05-08T06:45:57.002Z,37.02
2018-05-08T06:48:30.503Z,37.24
2018-05-08T06:51:03.474Z,37.24
2018-05-08T06:53:37.489Z,37.29
2018-05-08T06:56:10.303Z,37.27
2018-05-08T06:58:44.103Z,37.38
2018-05-08T07:01:17.373Z,37.55
2018-05-08T07:03:50.625Z,37.55
2018-05-08T07:06:24.468Z,37.67
2018-05-08T07:08:57.678Z,37.64
2018-05-08T07:11:30.485Z,37.64
2018-05-08T07:14:05.457Z,37.66
2018-05-08T07:16:38.426Z,37.66
2018-05-08T07:19:11.757Z,37.74
2018-05-08T07:21:48.708Z,37.54
2018-05-08T07:24:21.866Z,37.57
2018-05-08T07:26:55.018Z,37.95
2018-05-08T07:29:27.496Z,37.87
2018-05-08T07:32:00.835Z,37.75
2018-05-08T07:34:33.481Z,37.91
2018-05-08T07:37:07.039Z,37.90
2018-05-08T07:39:40.856Z,38.05
2018-05-08T07:42:14.112Z,38.19
2018-05-08T07:44:47.459Z,38.07
2018-05-08T07:47:22.343Z,38.19
2018-05-08T07:49:55.642Z,38.24
2018-05-08T07:52:29.454Z,38.29
2018-05-08T07:55:02.345Z,38.25
2018-05-08T07:57:35.657Z,38.32
2018-05-08T08:00:08.526Z,38.34
2018-05-08T08:02:42.514Z,38.38
2018-05-08T08:05:16.057Z,38.31
2018-05-08T08:07:48.577Z,38.29
2018-05-08T08:10:22.830Z,38.30
2018-05-08T08:12:55.548Z,38.32
2018-05-08T08:15:29.476Z,38.43
2018-05-08T08:18:03.469Z,38.46
2018-05-08T08:20:36.431Z,38.43
2018-05-08T08:23:09.434Z,38.40
2018-05-08T08:25:43.287Z,38.49
2018-05-08T08:28:16.315Z,38.50
2018-05-08T08:30:49.596Z,38.53
2018-05-08T08:33:21.451Z,38.52
2018-05-08T08:35:54.417Z,38.50
2018-05-08T08:38:27.594Z,38.47
2018-05-08T08:41:00.504Z,38.59
2018-05-08T08:43:33.158Z,38.56
2018-05-08T08:46:06.959Z,38.60
2018-05-08T08:48:40.535Z,38.61
2018-05-08T08:51:16.040Z,38.64
2018-05-08T08:53:49.412Z,38.65
2018-05-08T08:56:23.607Z,38.67
2018-05-08T08:58:56.561Z,38.78
2018-05-08T09:01:29.516Z,39.06
2018-05-08T09:04:02.594Z,39.21
2018-05-08T09:06:35.730Z,39.15
2018-05-08T09:09:09.482Z,39.13
2018-05-08T09:11:42.675Z,39.18
2018-05-08T09:14:15.910Z,39.18
2018-05-08T09:16:48.970Z,39.13
2018-05-08T09:19:23.337Z,39.35
2018-05-08T09:21:56.141Z,39.15
2018-05-08T09:24:29.711Z,39.42
2018-05-08T09:27:03.727Z,39.47
2018-05-08T09:29:36.782Z,39.58
2018-05-08T09:32:10.334Z,39.60
2018-05-08T09:34:43.729Z,39.60
2018-05-08T09:37:16.303Z,39.52
2018-05-08T09:39:49.445Z,39.67
2018-05-08T09:42:22.676Z,39.74
2018-05-08T09:44:55.505Z,39.77
2018-05-08T09:47:28.566Z,39.79
2018-05-08T09:50:01.656Z,39.80
2018-05-08T09:52:35.475Z,39.85
2018-05-08T09:55:09.107Z,39.81
2018-05-08T09:57:41.830Z,39.81
2018-05-08T10:00:14.562Z,39.93
2018-05-08T10:02:47.245Z,39.93
2018-05-08T10:05:20.651Z,40.08
2018-05-08T10:07:53.579Z,40.06
2018-05-08T10:10:26.443Z,39.99
2018-05-08T10:12:59.771Z,40.09
2018-05-08T10:15:33.456Z,40.09
2018-05-08T10:18:06.259Z,40.09
2018-05-08T10:20:39.759Z,39.99
2018-05-08T10:23:13.234Z,40.19
2018-05-08T10:25:46.688Z,40.20
2018-05-08T10:28:19.446Z,40.26
2018-05-08T10:30:52.347Z,40.20
2018-05-08T10:33:24.981Z,40.38
2018-05-08T10:35:57.487Z,40.21
2018-05-08T10:38:30.930Z,40.14
2018-05-08T10:41:04.025Z,40.43
2018-05-08T10:43:37.449Z,40.57
2018-05-08T10:46:10.350Z,40.41
2018-05-08T10:48:42.619Z,40.50
2018-05-08T10:51:15.457Z,40.60
2018-05-08T10:53:48.568Z,40.58
2018-05-08T10:56:21.897Z,40.59
2018-05-08T10:58:55.254Z,40.58
2018-05-08T11:01:28.111Z,40.63
2018-05-08T11:04:00.964Z,40.65
2018-05-08T11:06:33.984Z,40.58
2018-05-08T11:09:07.437Z,40.45
2018-05-08T11:13:58.000Z,40.19
2018-05-08T11:16:30.704Z,40.28
2018-05-08T11:19:03.165Z,40.52
2018-05-08T11:21:35.987Z,40.78
2018-05-08T11:24:09.070Z,40.80
2018-05-08T11:26:42.595Z,40.71
2018-05-08T11:29:15.501Z,40.85
2018-05-08T11:31:49.071Z,40.78
2018-05-08T11:34:21.849Z,40.82
2018-05-08T11:36:55.338Z,40.83
2018-05-08T11:39:27.727Z,40.92
2018-05-08T11:42:00.413Z,40.81
2018-05-08T11:44:33.729Z,40.68
2018-05-08T11:47:07.588Z,40.70
2018-05-08T11:49:39.286Z,40.91
2018-05-08T11:52:12.443Z,40.86
2018-05-08T11:54:44.973Z,40.78
2018-05-08T11:57:18.599Z,40.84
2018-05-08T11:59:51.204Z,40.81
2018-05-08T12:02:24.428Z,40.80
2018-05-08T12:04:57.715Z,40.89
2018-05-08T12:07:31.108Z,40.61
2018-05-08T12:10:04.632Z,40.85
2018-05-08T12:12:37.688Z,40.84
2018-05-08T12:15:09.452Z,40.93
2018-05-08T12:17:42.420Z,41.02
2018-05-08T12:20:15.488Z,40.79
2018-05-08T12:22:48.548Z,40.93
2018-05-08T12:25:21.778Z,41.15
2018-05-08T12:27:55.469Z,41.21
2018-05-08T12:30:27.996Z,40.98
2018-05-08T12:34:05.540Z,41.00
2018-05-08T12:36:38.967Z,41.03
2018-05-08T12:39:12.002Z,40.92
2018-05-08T12:41:45.062Z,41.05
2018-05-08T12:44:18.414Z,40.99
2018-05-08T12:46:51.949Z,41.01
2018-05-08T12:49:24.955Z,40.74
2018-05-08T12:51:57.451Z,40.96
2018-05-08T12:54:31.490Z,41.04
2018-05-08T12:57:05.228Z,41.15
2018-05-08T12:59:37.969Z,41.16
2018-05-08T13:02:11.605Z,40.87
2018-05-08T13:04:45.011Z,41.02
2018-05-08T13:07:17.782Z,41.12
2018-05-08T13:09:51.043Z,41.22
2018-05-08T13:12:23.718Z,41.20
2018-05-08T13:14:56.417Z,41.21
2018-05-08T13:17:29.328Z,41.33
2018-05-08T13:20:02.551Z,41.20
2018-05-08T13:22:36.236Z,40.80
2018-05-08T13:25:09.457Z,41.12
2018-05-08T13:27:42.854Z,41.01
2018-05-08T13:30:15.585Z,41.36
2018-05-08T13:32:48.699Z,41.45
2018-05-08T13:35:21.965Z,41.49
2018-05-08T13:37:55.317Z,41.42
2018-05-08T13:40:28.328Z,41.31
2018-05-08T13:43:00.963Z,41.39
2018-05-08T13:45:34.335Z,41.22
2018-05-08T13:48:07.200Z,41.48
2018-05-08T13:50:40.698Z,41.62
2018-05-08T13:53:14.511Z,41.64
2018-05-08T13:55:47.231Z,41.72
2018-05-08T13:58:19.577Z,41.59
2018-05-08T14:00:52.552Z,41.59
2018-05-08T14:03:25.443Z,41.75
2018-05-08T14:05:58.201Z,41.69
2018-05-08T14:08:30.966Z,41.68
2018-05-08T14:11:03.967Z,41.65
2018-05-08T14:13:37.229Z,41.50
2018-05-08T14:16:10.347Z,41.62
2018-05-08T14:18:43.429Z,42.02
2018-05-08T14:21:16.402Z,42.13
2018-05-08T14:23:49.542Z,42.17
2018-05-08T14:26:22.620Z,42.22
2018-05-08T14:28:55.597Z,42.28
2018-05-08T14:31:27.535Z,42.48
2018-05-08T14:34:00.459Z,42.47
2018-05-08T14:36:33.031Z,42.53
2018-05-08T14:39:06.083Z,42.50
2018-05-08T14:41:38.969Z,42.49
2018-05-08T14:44:12.570Z,42.60
2018-05-08T14:46:46.107Z,42.71
2018-05-08T14:49:19.435Z,42.78
2018-05-08T14:51:52.958Z,42.89
2018-05-08T14:54:25.736Z,43.01
2018-05-08T14:56:58.662Z,43.10
2018-05-08T14:59:31.428Z,43.19
2018-05-08T15:02:05.567Z,43.13
2018-05-08T15:04:39.058Z,43.29
2018-05-08T15:07:12.425Z,43.23
2018-05-08T15:09:46.559Z,43.33
2018-05-08T15:12:19.916Z,43.36
2018-05-08T15:14:53.349Z,43.43
2018-05-08T15:17:26.424Z,43.43
2018-05-08T15:19:59.089Z,43.44
2018-05-08T15:22:32.135Z,43.49
2018-05-08T15:25:05.091Z,43.55
2018-05-08T15:27:38.138Z,43.65
2018-05-08T15:30:11.268Z,43.69
2018-05-08T15:32:44.496Z,43.73
2018-05-08T15:35:18.346Z,43.90
2018-05-08T15:37:51.516Z,43.97
2018-05-08T15:40:24.673Z,43.87
2018-05-08T15:42:58.300Z,43.96
2018-05-08T15:45:30.819Z,44.08
2018-05-08T15:48:04.353Z,44.49
2018-05-08T15:50:37.072Z,44.79
2018-05-08T15:53:09.930Z,45.23
2018-05-08T15:55:43.321Z,45.20
2018-05-08T15:58:16.644Z,45.72
2018-05-08T16:00:49.434Z,45.34
2018-05-08T16:03:22.331Z,45.15
2018-05-08T16:05:54.973Z,45.38
2018-05-08T16:08:27.132Z,45.48
2018-05-08T16:10:59.868Z,45.32
2018-05-08T16:13:33.510Z,45.48
2018-05-08T16:16:07.537Z,45.31
2018-05-08T16:18:41.101Z,45.50
2018-05-08T16:21:14.459Z,45.51
2018-05-08T16:23:47.442Z,45.51
2018-05-08T16:26:20.455Z,45.38
2018-05-08T16:28:53.119Z,45.49
2018-05-08T16:31:26.641Z,45.56
2018-05-08T16:33:59.591Z,45.51
2018-05-08T16:36:32.603Z,45.46
2018-05-08T16:39:05.951Z,45.42
2018-05-08T16:41:39.461Z,45.43
2018-05-08T16:44:13.283Z,45.29
2018-05-08T16:46:45.996Z,45.42
2018-05-08T16:49:18.753Z,45.42
2018-05-08T16:51:51.611Z,45.39
2018-05-08T16:54:25.425Z,45.32
2018-05-08T16:56:57.496Z,45.32
2018-05-08T16:59:31.255Z,45.31
2018-05-08T17:02:03.959Z,45.27
2018-05-08T17:04:36.403Z,45.26
2018-05-08T17:07:08.774Z,45.20
2018-05-08T17:09:42.530Z,45.10
2018-05-08T17:12:15.748Z,45.04
2018-05-08T17:17:25.425Z,44.95
2018-05-08T17:19:58.691Z,44.89
2018-05-08T17:22:31.504Z,44.86
2018-05-08T17:25:04.552Z,44.79
2018-05-08T17:27:36.941Z,44.76
2018-05-08T17:30:09.824Z,44.67
2018-05-08T17:32:43.406Z,44.57
2018-05-08T17:35:16.049Z,44.42
2018-05-08T17:37:49.100Z,44.45
2018-05-08T17:40:22.326Z,44.42
2018-05-08T17:42:55.614Z,44.35
2018-05-08T17:45:28.569Z,44.16
2018-05-08T17:48:01.420Z,43.85
2018-05-08T17:50:34.534Z,44.15
2018-05-08T17:53:07.553Z,44.13
2018-05-08T17:55:40.553Z,43.96
2018-05-08T17:58:13.405Z,43.88
2018-05-08T18:02:34.655Z,43.87
2018-05-08T18:05:08.428Z,43.57
2018-05-08T18:07:41.512Z,43.64
2018-05-08T18:10:14.060Z,43.67
2018-05-08T18:12:47.050Z,43.52
2018-05-08T18:15:19.803Z,43.38
2018-05-08T18:17:53.249Z,43.19
2018-05-08T18:20:25.776Z,43.22
2018-05-08T18:22:58.772Z,43.27
2018-05-08T18:25:31.546Z,43.18
2018-05-08T18:28:05.402Z,43.21
2018-05-08T18:30:38.413Z,43.22
2018-05-08T18:33:11.419Z,43.05
2018-05-08T18:35:44.215Z,42.76
2018-05-08T18:38:17.829Z,42.77
2018-05-08T18:40:50.962Z,42.60
2018-05-08T18:43:24.403Z,42.63
2018-05-08T18:45:56.875Z,42.52
2018-05-08T18:48:29.810Z,42.48
2018-05-08T18:51:03.054Z,42.28
2018-05-08T18:53:35.450Z,42.14
2018-05-08T18:56:08.039Z,42.06
2018-05-08T18:58:41.610Z,42.01
2018-05-08T19:01:14.563Z,42.00
2018-05-08T19:03:48.613Z,41.89
2018-05-08T19:09:17.469Z,41.90
2018-05-08T19:11:51.417Z,41.69
2018-05-08T19:14:24.900Z,41.50
2018-05-08T19:16:57.964Z,41.28
2018-05-08T19:19:35.537Z,41.11
2018-05-08T19:22:09.107Z,41.07
2018-05-08T19:24:42.324Z,40.97
2018-05-08T19:27:15.185Z,40.80
2018-05-08T19:29:52.678Z,40.51
2018-05-08T19:32:26.329Z,40.44
2018-05-08T19:35:03.972Z,40.46
2018-05-08T19:40:56.503Z,40.31
2018-05-08T19:43:29.659Z,40.17
2018-05-08T19:46:02.442Z,40.04
2018-05-08T19:48:35.446Z,39.67
2018-05-08T19:51:08.441Z,39.63
2018-05-08T19:53:41.421Z,39.57
2018-05-08T19:56:14.720Z,39.49
2018-05-08T19:58:47.539Z,39.35
2018-05-08T20:01:20.431Z,39.28
2018-05-08T20:03:53.295Z,39.01
2018-05-08T20:06:26.404Z,38.93
2018-05-08T20:08:59.542Z,38.72
2018-05-08T20:11:32.640Z,38.67
2018-05-08T20:14:04.482Z,38.45
2018-05-08T20:16:37.104Z,38.18
2018-05-08T20:19:10.480Z,38.19
2018-05-08T20:21:43.636Z,38.17
2018-05-08T20:24:16.619Z,37.90
2018-05-08T20:26:49.073Z,37.71
2018-05-08T20:29:22.445Z,37.75
2018-05-08T20:31:55.426Z,37.66
2018-05-08T20:34:28.145Z,37.50
2018-05-08T20:37:01.417Z,37.28
2018-05-08T20:39:34.186Z,37.07
2018-05-08T20:42:07.032Z,36.94
2018-05-08T20:44:40.583Z,36.84
2018-05-08T20:47:13.112Z,36.96
2018-05-08T20:49:46.163Z,36.75
2018-05-08T20:52:19.543Z,36.44
2018-05-08T20:54:52.942Z,36.29
2018-05-08T20:57:24.614Z,36.36
2018-05-08T20:59:57.415Z,36.18
2018-05-08T21:02:30.622Z,35.94
2018-05-08T21:05:03.488Z,35.84
2018-05-08T21:07:36.241Z,35.67
2018-05-08T21:10:08.762Z,35.45
2018-05-08T21:12:40.690Z,35.23
2018-05-08T21:15:14.342Z,35.10
2018-05-08T21:17:48.279Z,34.97
2018-05-08T21:20:21.718Z,34.83
2018-05-08T21:22:54.729Z,34.58
2018-05-08T21:25:27.927Z,34.28
2018-05-08T21:28:05.573Z,34.33
2018-05-08T21:30:43.991Z,34.21
2018-05-08T21:33:17.709Z,34.04
2018-05-08T21:35:50.705Z,33.57
2018-05-08T21:38:24.121Z,33.50
2018-05-08T21:40:57.544Z,33.38
2018-05-08T21:43:30.547Z,33.10
2018-05-08T21:46:03.432Z,33.08
2018-05-08T21:48:36.089Z,33.08
2018-05-08T21:51:08.503Z,33.02
2018-05-08T21:53:42.507Z,32.92
2018-05-08T21:56:15.502Z,32.71
2018-05-08T21:58:48.273Z,32.64
2018-05-08T22:01:20.908Z,32.65
2018-05-08T22:03:52.768Z,32.62
2018-05-08T22:06:26.292Z,32.46
2018-05-08T22:08:58.911Z,32.31
2018-05-08T22:11:31.583Z,32.19
2018-05-08T22:14:05.366Z,32.08
2018-05-08T22:16:37.968Z,31.97
2018-05-08T22:19:10.654Z,31.89
2018-05-08T22:21:42.450Z,31.79
2018-05-08T22:26:28.480Z,31.54
2018-05-08T22:29:00.309Z,31.41
2018-05-08T22:31:31.906Z,31.43
2018-05-08T22:34:04.500Z,31.34
2018-05-08T22:36:37.603Z,31.39
2018-05-08T22:39:09.369Z,31.36
2018-05-08T22:41:41.014Z,31.33
2018-05-08T22:44:13.083Z,31.27
2018-05-08T22:46:45.096Z,31.10
2018-05-08T22:49:46.155Z,31.19
2018-05-08T22:52:18.708Z,31.23
2018-05-08T22:54:50.462Z,31.21
2018-05-08T22:57:21.980Z,30.99
2018-05-08T22:59:53.588Z,30.96
2018-05-08T23:05:01.594Z,31.07
2018-05-08T23:07:33.012Z,31.07
2018-05-08T23:10:05.003Z,30.99
2018-05-08T23:12:36.604Z,30.99
2018-05-08T23:15:08.343Z,30.89
2018-05-08T23:17:40.140Z,30.98
2018-05-08T23:20:13.475Z,30.91
2018-05-08T23:22:45.219Z,30.90
2018-05-08T23:26:09.995Z,30.89
2018-05-08T23:28:42.068Z,30.79
2018-05-08T23:31:15.519Z,30.66
2018-05-08T23:33:48.668Z,30.72
2018-05-08T23:36:20.299Z,30.67
2018-05-08T23:38:52.009Z,30.68
2018-05-08T23:41:23.607Z,30.63
2018-05-08T23:43:55.403Z,30.59
2018-05-08T23:46:27.150Z,30.59
2018-05-08T23:51:14.627Z,30.74
2018-05-08T23:53:46.173Z,30.84
2018-05-08T23:56:18.141Z,30.82
2018-05-08T23:59:24.891Z,31.09
